Time;durP1;ratioP1;P1;durP2;ratioP2;P2;SDS_P1;SDS_P2;PMS_P1;PMS_P2;Temp;Humidity;BMP_temperature;BMP_pressure;BME280_temperature;BME280_humidity;BME280_pressure;Samples;Min_cycle;Max_cycle;Signal;HPM_P1;HPM_P2
2023/02/03 08:25:50;;;;;;;1.00;0.80;;;14.70;48.00;;;;;;5966584;23;20472;-64
2023/02/03 08:28:15;;;;;;;1.80;0.93;;;14.70;48.50;;;;;;4899987;29;20438;-62
2023/02/03 08:30:41;;;;;;;2.13;1.40;;;14.70;48.30;;;;;;4900046;29;20420;-61
2023/02/03 08:33:06;;;;;;;1.60;1.13;;;14.60;49.70;;;;;;4899188;29;20684;-64
2023/02/03 08:35:32;;;;;;;3.10;1.30;;;14.60;49.60;;;;;;4900245;29;20172;-64
2023/02/03 08:37:58;;;;;;;2.17;1.40;;;14.50;49.70;;;;;;4918711;29;20188;-64
2023/02/03 08:40:23;;;;;;;1.60;1.23;;;14.50;49.70;;;;;;4919156;29;20251;-64
2023/02/03 08:42:49;;;;;;;1.73;1.13;;;14.50;49.60;;;;;;4919096;29;20191;-63
2023/02/03 08:45:14;;;;;;;1.60;1.30;;;14.50;49.40;;;;;;4919072;29;20180;-64
2023/02/03 08:47:40;;;;;;;1.83;1.10;;;14.60;49.50;;;;;;4917672;29;20234;-64
2023/02/03 08:50:07;;;;;;;1.47;0.90;;;14.60;49.40;;;;;;4918974;29;20182;-64
2023/02/03 08:52:33;;;;;;;1.53;1.10;;;14.60;49.30;;;;;;4918966;29;20180;-64
2023/02/03 08:54:58;;;;;;;2.50;1.20;;;14.70;49.30;;;;;;4918908;29;20438;-64
2023/02/03 08:57:24;;;;;;;1.50;1.13;;;14.80;49.10;;;;;;4918763;29;20192;-61
2023/02/03 08:59:50;;;;;;;1.33;1.10;;;14.80;49.00;;;;;;4918724;29;20175;-64
2023/02/03 09:02:18;;;;;;;1.30;1.17;;;14.90;48.80;;;;;;4918657;29;20207;-64
2023/02/03 09:04:44;;;;;;;1.33;0.93;;;15.00;48.80;;;;;;4918674;29;20644;-64
2023/02/03 09:07:10;;;;;;;1.87;1.10;;;15.00;48.70;;;;;;4918415;29;20428;-64
2023/02/03 09:09:36;;;;;;;1.20;0.90;;;15.10;48.60;;;;;;4918305;29;20416;-62
2023/02/03 09:12:04;;;;;;;4.50;1.37;;;15.10;48.50;;;;;;4918574;29;20912;-63
2023/02/03 09:14:33;;;;;;;1.40;0.97;;;15.10;48.40;;;;;;4918743;29;20408;-64
2023/02/03 09:17:00;;;;;;;1.17;0.97;;;15.20;48.30;;;;;;4918293;29;20463;-63
2023/02/03 09:19:26;;;;;;;3.60;1.17;;;15.20;48.30;;;;;;4918551;29;20431;-63
2023/02/03 09:21:52;;;;;;;1.13;1.03;;;15.20;48.30;;;;;;4918451;29;20466;-63
2023/02/03 09:24:17;;;;;;;3.00;1.00;;;15.30;48.30;;;;;;4917291;29;20189;-63
2023/02/03 09:26:44;;;;;;;1.53;1.10;;;15.30;48.30;;;;;;4917923;29;20222;-64
2023/02/03 09:29:09;;;;;;;1.50;0.90;;;15.30;48.20;;;;;;4918350;29;20218;-65
2023/02/03 09:31:35;;;;;;;1.40;1.00;;;15.30;48.20;;;;;;4918480;29;20420;-63
2023/02/03 09:34:01;;;;;;;1.73;1.40;;;15.30;48.10;;;;;;4918812;29;20188;-64
2023/02/03 09:36:27;;;;;;;1.73;1.20;;;15.40;48.10;;;;;;4918150;29;20238;-64
2023/02/03 09:38:52;;;;;;;1.70;1.10;;;15.40;48.10;;;;;;4918431;29;20691;-64
2023/02/03 09:41:55;;;;;;;1.40;1.00;;;15.40;48.10;;;;;;4918136;29;20286;-64
2023/02/03 09:44:33;;;;;;;7.23;1.20;;;15.40;48.00;;;;;;4917889;29;20627;-63
2023/02/03 09:47:09;;;;;;;1.40;0.80;;;15.40;48.00;;;;;;4918048;29;20785;-64
2023/02/03 09:49:45;;;;;;;1.37;1.10;;;15.40;48.00;;;;;;4918216;29;20408;-63
2023/02/03 09:52:17;;;;;;;1.53;1.00;;;15.40;48.00;;;;;;4917746;29;20498;-64
2023/02/03 09:54:55;;;;;;;1.07;0.97;;;15.50;48.10;;;;;;4918280;29;20408;-64
2023/02/03 09:57:28;;;;;;;2.20;1.07;;;15.50;48.10;;;;;;4917847;29;20423;-64
2023/02/03 09:59:58;;;;;;;1.23;0.80;;;15.50;48.10;;;;;;4917859;29;20412;-63
2023/02/03 10:02:46;;;;;;;1.30;1.10;;;15.50;48.00;;;;;;4918044;29;20542;-64
2023/02/03 10:05:30;;;;;;;1.20;0.90;;;15.50;48.00;;;;;;4917963;29;20427;-64
2023/02/03 10:08:20;;;;;;;2.70;1.20;;;15.50;47.90;;;;;;4918191;29;20442;-61
2023/02/03 10:11:08;;;;;;;1.40;0.83;;;15.60;48.00;;;;;;4918562;29;20412;-63
2023/02/03 10:13:49;;;;;;;1.20;0.90;;;15.50;47.90;;;;;;4918247;29;20415;-63
2023/02/03 10:16:24;;;;;;;2.10;1.10;;;15.60;48.00;;;;;;4917997;29;20857;-62
2023/02/03 10:18:52;;;;;;;1.20;1.10;;;15.60;48.00;;;;;;4918122;29;20407;-63
2023/02/03 10:21:18;;;;;;;3.30;1.20;;;15.60;48.00;;;;;;4918236;29;20488;-62
2023/02/03 10:23:45;;;;;;;1.80;0.90;;;15.60;47.90;;;;;;4918013;29;20483;-63
2023/02/03 10:26:20;;;;;;;1.83;1.03;;;15.60;47.90;;;;;;4917433;29;20675;-63
2023/02/03 10:28:57;;;;;;;2.07;1.13;;;15.60;47.90;;;;;;4918159;29;20410;-64
2023/02/03 10:31:27;;;;;;;1.70;0.80;;;15.70;48.00;;;;;;4917828;29;20427;-63
2023/02/03 10:34:07;;;;;;;1.23;0.90;;;15.70;48.00;;;;;;4917995;29;20423;-63
2023/02/03 10:37:17;;;;;;;1.13;1.00;;;15.70;47.90;;;;;;4917813;29;20956;-63
2023/02/03 10:39:48;;;;;;;2.30;1.03;;;15.70;47.90;;;;;;4905016;29;20438;-63
2023/02/03 10:42:15;;;;;;;2.73;1.13;;;15.70;48.00;;;;;;4916508;29;20459;-61
2023/02/03 10:44:46;;;;;;;1.93;1.10;;;15.70;47.90;;;;;;4917708;29;20423;-63
2023/02/03 10:47:33;;;;;;;1.43;1.10;;;15.70;47.90;;;;;;4917895;29;20457;-62
2023/02/03 10:50:03;;;;;;;1.27;0.80;;;15.70;47.90;;;;;;4917717;29;20443;-63
2023/02/03 10:52:33;;;;;;;1.50;1.00;;;15.70;47.90;;;;;;4917260;29;20424;-62
2023/02/03 10:55:06;;;;;;;1.50;1.00;;;15.70;47.90;;;;;;4917773;29;20942;-62
2023/02/03 10:57:35;;;;;;;1.40;1.10;;;15.70;47.90;;;;;;4916982;29;20535;-62
2023/02/03 11:00:16;;;;;;;3.20;1.40;;;15.70;47.80;;;;;;4917267;29;20900;-62
2023/02/03 11:02:42;;;;;;;1.50;1.03;;;15.80;48.00;;;;;;4917052;29;20447;-62
2023/02/03 11:05:20;;;;;;;1.30;0.90;;;15.70;48.30;;;;;;4920699;29;20448;-61
2023/02/03 11:07:46;;;;;;;2.30;0.97;;;15.80;48.70;;;;;;4920972;29;20222;-61
2023/02/03 11:10:33;;;;;;;1.93;0.90;;;15.80;48.70;;;;;;4920884;29;20427;-61
2023/02/03 11:13:24;;;;;;;3.77;1.47;;;15.80;48.90;;;;;;4920870;29;20392;-61
2023/02/03 11:16:00;;;;;;;1.23;1.03;;;15.90;48.90;;;;;;4920602;29;20499;-65
2023/02/03 11:18:37;;;;;;;2.90;1.37;;;15.80;49.00;;;;;;4920693;29;20418;-65
2023/02/03 11:21:23;;;;;;;1.97;1.10;;;15.90;49.00;;;;;;4920736;29;20915;-63
2023/02/03 11:23:51;;;;;;;7.73;1.50;;;15.90;48.90;;;;;;4921045;29;20432;-62
2023/02/03 11:26:21;;;;;;;2.57;1.20;;;16.00;49.10;;;;;;4920501;29;20455;-62
2023/02/03 11:28:50;;;;;;;1.40;1.10;;;15.90;49.00;;;;;;4921034;29;20407;-64
2023/02/03 11:31:21;;;;;;;2.03;1.00;;;16.00;49.10;;;;;;4920797;29;20404;-64
2023/02/03 11:33:48;;;;;;;2.70;1.10;;;16.00;49.20;;;;;;4920280;29;20498;-62
2023/02/03 11:36:16;;;;;;;1.97;0.97;;;16.00;49.20;;;;;;4920223;29;20435;-64
2023/02/03 11:38:43;;;;;;;2.17;1.10;;;16.00;49.30;;;;;;4920492;29;20412;-65
2023/02/03 11:41:17;;;;;;;1.97;1.40;;;16.00;49.30;;;;;;4920015;29;20467;-64
2023/02/03 11:43:44;;;;;;;2.97;1.27;;;16.10;49.20;;;;;;4920420;29;20403;-64
2023/02/03 11:46:10;;;;;;;1.67;1.30;;;16.10;49.00;;;;;;4920059;29;20515;-65
2023/02/03 11:48:42;;;;;;;1.10;0.93;;;16.10;49.00;;;;;;4920120;29;20420;-63
2023/02/03 11:51:39;;;;;;;2.03;1.30;;;16.10;48.90;;;;;;4920080;29;20412;-65
2023/02/03 11:54:43;;;;;;;2.60;1.50;;;16.10;48.80;;;;;;4920303;29;20404;-64
2023/02/03 11:57:18;;;;;;;3.50;1.00;;;16.10;49.30;;;;;;4919644;29;20459;-65
2023/02/03 12:00:09;;;;;;;1.57;1.07;;;16.10;48.70;;;;;;4920081;29;20415;-65
2023/02/03 12:02:56;;;;;;;3.13;1.13;;;16.10;48.70;;;;;;4919734;29;20466;-64
2023/02/03 12:05:42;;;;;;;1.37;1.00;;;16.00;48.60;;;;;;4919870;29;20420;-64
2023/02/03 12:08:25;;;;;;;1.57;1.20;;;16.10;48.60;;;;;;4919834;29;20817;-64
2023/02/03 12:11:09;;;;;;;2.77;0.93;;;16.00;48.50;;;;;;4919669;29;20420;-64
2023/02/03 12:14:15;;;;;;;2.13;1.00;;;16.10;48.60;;;;;;4919688;29;20408;-65
2023/02/03 12:16:58;;;;;;;3.00;1.10;;;16.00;48.50;;;;;;4911564;29;20450;-64
2023/02/03 12:19:40;;;;;;;2.07;1.10;;;16.00;48.50;;;;;;4919543;29;20400;-64
2023/02/03 12:22:38;;;;;;;2.13;1.07;;;16.00;48.50;;;;;;4919539;29;20882;-63
2023/02/03 12:25:16;;;;;;;1.80;1.10;;;16.00;48.40;;;;;;4919188;29;20931;-63
2023/02/03 12:28:09;;;;;;;1.83;1.47;;;16.00;48.50;;;;;;4919161;29;20451;-65
2023/02/03 12:30:42;;;;;;;1.70;0.90;;;16.00;48.40;;;;;;4919518;29;20412;-65
2023/02/03 12:33:20;;;;;;;1.20;0.80;;;16.00;48.40;;;;;;4919325;29;20424;-64
2023/02/03 12:35:56;;;;;;;1.57;1.00;;;16.00;48.40;;;;;;4919256;29;20502;-64
2023/02/03 12:38:58;;;;;;;2.70;1.20;;;16.00;48.40;;;;;;4919396;29;20395;-64
2023/02/03 12:41:33;;;;;;;1.50;1.03;;;16.00;48.40;;;;;;4910889;29;20466;-64
2023/02/03 12:44:10;;;;;;;2.90;0.97;;;16.00;48.40;;;;;;4919211;29;20415;-64
2023/02/03 12:46:43;;;;;;;1.20;1.00;;;16.00;48.40;;;;;;4918716;29;20514;-64
2023/02/03 12:49:21;;;;;;;1.63;0.90;;;16.00;48.40;;;;;;4919026;29;20416;-65
2023/02/03 12:51:56;;;;;;;1.40;1.30;;;16.00;48.30;;;;;;4919070;29;20415;-64
2023/02/03 12:54:56;;;;;;;1.10;0.93;;;16.00;48.30;;;;;;4918852;29;20430;-64
2023/02/03 12:57:34;;;;;;;2.90;1.27;;;16.00;48.30;;;;;;4919125;29;20852;-64
2023/02/03 13:00:25;;;;;;;1.30;1.00;;;16.00;48.30;;;;;;4918659;29;20423;-65
2023/02/03 13:03:06;;;;;;;4.23;1.00;;;16.00;48.30;;;;;;4919271;29;20471;-64
2023/02/03 13:06:23;;;;;;;3.23;0.83;;;16.00;48.30;;;;;;4919222;29;20423;-63
2023/02/03 13:08:58;;;;;;;1.50;1.00;;;16.00;48.20;;;;;;4915130;29;20424;-62
2023/02/03 13:11:32;;;;;;;2.47;1.00;;;15.90;48.10;;;;;;4918553;29;20414;-63
2023/02/03 13:14:11;;;;;;;1.77;1.03;;;16.00;48.20;;;;;;4918517;29;20761;-63
2023/02/03 13:16:42;;;;;;;4.30;1.23;;;16.00;48.20;;;;;;4918495;29;20440;-62
2023/02/03 13:19:18;;;;;;;1.20;1.00;;;15.90;48.70;;;;;;4918618;29;20506;-64
2023/02/03 13:21:46;;;;;;;1.97;0.90;;;16.00;48.20;;;;;;4918589;29;20447;-63
2023/02/03 13:24:12;;;;;;;1.23;0.93;;;16.00;48.20;;;;;;4918439;29;20485;-63
2023/02/03 13:27:12;;;;;;;1.10;0.80;;;16.00;48.20;;;;;;4917358;29;20482;-63
2023/02/03 13:30:03;;;;;;;1.17;0.90;;;16.00;48.20;;;;;;4918090;29;20199;-64
2023/02/03 13:32:57;;;;;;;1.80;1.00;;;16.00;48.20;;;;;;4916753;29;20431;-64
2023/02/03 13:35:55;;;;;;;2.60;0.90;;;16.00;48.20;;;;;;4918771;29;20411;-64
2023/02/03 13:38:36;;;;;;;3.27;1.77;;;16.00;48.20;;;;;;4918056;29;20419;-63
2023/02/03 13:41:01;;;;;;;1.60;0.77;;;16.00;48.20;;;;;;4918333;29;20842;-63
2023/02/03 13:43:34;;;;;;;2.03;0.90;;;16.00;48.20;;;;;;4917919;29;20502;-63
2023/02/03 13:46:02;;;;;;;1.93;1.00;;;16.00;48.20;;;;;;4917892;29;20203;-63
2023/02/03 13:48:31;;;;;;;1.70;0.90;;;16.00;48.20;;;;;;4918003;29;20908;-63
2023/02/03 13:51:19;;;;;;;1.97;0.90;;;16.00;48.20;;;;;;4917895;29;20404;-63
2023/02/03 13:53:47;;;;;;;1.90;0.77;;;16.10;48.30;;;;;;4917786;29;20927;-64
2023/02/03 13:56:22;;;;;;;1.87;1.07;;;16.00;48.40;;;;;;4917905;29;20806;-63
2023/02/03 13:59:04;;;;;;;2.00;0.70;;;16.10;48.50;;;;;;4917806;29;20419;-63
2023/02/03 14:01:37;;;;;;;2.27;1.07;;;16.10;48.50;;;;;;4917690;29;20806;-63
2023/02/03 14:04:22;;;;;;;2.60;0.90;;;16.10;48.40;;;;;;4917604;29;20400;-65
2023/02/03 14:06:48;;;;;;;1.77;1.00;;;16.10;48.40;;;;;;4917913;29;20936;-64
2023/02/03 14:09:22;;;;;;;1.77;0.90;;;16.10;48.40;;;;;;4918093;29;20497;-65
2023/02/03 14:12:11;;;;;;;1.20;1.00;;;16.10;48.40;;;;;;4917647;29;20238;-65
2023/02/03 14:14:36;;;;;;;1.23;0.93;;;16.10;48.40;;;;;;4918232;29;20459;-64
2023/02/03 14:17:02;;;;;;;1.53;0.90;;;16.10;48.40;;;;;;4917919;29;20443;-64
2023/02/03 14:19:28;;;;;;;2.80;0.90;;;16.10;48.40;;;;;;4917823;29;20184;-64
2023/02/03 14:21:59;;;;;;;2.83;2.07;;;16.10;48.40;;;;;;4917649;29;20240;-64
2023/02/03 14:24:39;;;;;;;1.00;0.80;;;16.10;48.30;;;;;;4918177;29;20584;-61
2023/02/03 14:27:16;;;;;;;2.67;1.20;;;16.10;48.40;;;;;;4917359;29;20462;-61
2023/02/03 14:29:41;;;;;;;1.50;1.00;;;16.10;48.40;;;;;;4917555;29;20411;-61
2023/02/03 14:32:12;;;;;;;1.90;1.00;;;16.10;48.30;;;;;;4917593;29;20420;-61
2023/02/03 14:34:48;;;;;;;2.40;0.90;;;16.10;48.40;;;;;;4917571;29;20180;-60
2023/02/03 14:37:19;;;;;;;1.53;1.00;;;16.10;48.30;;;;;;4918328;29;20467;-64
2023/02/03 14:40:05;;;;;;;1.03;0.87;;;16.10;48.30;;;;;;4921561;29;20427;-64
2023/02/03 14:43:02;;;;;;;1.23;0.80;;;16.10;48.30;;;;;;4921105;29;20939;-64
2023/02/03 14:45:31;;;;;;;1.97;0.90;;;16.20;48.50;;;;;;4926983;29;20431;-63
2023/02/03 14:48:16;;;;;;;1.20;0.70;;;16.10;48.40;;;;;;4921580;29;20784;-63
2023/02/03 14:51:21;;;;;;;1.13;0.77;;;16.20;48.50;;;;;;4921205;29;20403;-61
2023/02/03 14:53:57;;;;;;;1.40;1.00;;;16.10;48.40;;;;;;4920956;29;20900;-61
2023/02/03 14:59:40;;;;;;;2.77;0.90;;;16.20;48.50;;;;;;4921015;29;20862;-60
2023/02/03 15:02:06;;;;;;;0.90;0.70;;;16.10;48.50;;;;;;4920956;29;20454;-64
2023/02/03 15:04:32;;;;;;;1.77;0.80;;;16.10;48.50;;;;;;4921018;29;20423;-63
2023/02/03 15:06:58;;;;;;;0.90;0.70;;;16.20;48.50;;;;;;4920900;29;20432;-62
2023/02/03 15:09:35;;;;;;;1.40;0.70;;;16.20;48.50;;;;;;4921111;29;20279;-65
2023/02/03 15:12:02;;;;;;;1.23;0.77;;;16.20;48.50;;;;;;4921067;29;20182;-63
2023/02/03 15:14:32;;;;;;;1.90;0.90;;;16.20;48.50;;;;;;4920984;29;20423;-63
2023/02/03 15:17:02;;;;;;;1.10;0.87;;;16.20;48.50;;;;;;4920641;29;20440;-63
2023/02/03 15:19:32;;;;;;;1.80;0.80;;;16.20;48.50;;;;;;4921078;29;20415;-63
2023/02/03 15:21:58;;;;;;;2.30;1.23;;;16.20;48.50;;;;;;4920706;29;20457;-63
2023/02/03 15:24:24;;;;;;;1.20;0.90;;;16.20;48.50;;;;;;4920710;29;20924;-63
2023/02/03 15:26:55;;;;;;;1.30;0.80;;;16.20;48.50;;;;;;4920458;29;20222;-63
2023/02/03 15:29:32;;;;;;;1.00;0.80;;;16.20;48.40;;;;;;4920569;29;20464;-62
2023/02/03 15:32:32;;;;;;;2.43;0.80;;;16.20;48.40;;;;;;4920741;29;20420;-63
2023/02/03 15:34:59;;;;;;;1.10;0.80;;;16.30;48.50;;;;;;4915773;29;20435;-63
2023/02/03 15:37:52;;;;;;;1.53;0.93;;;16.20;48.50;;;;;;4920307;29;20423;-63
2023/02/03 15:40:22;;;;;;;0.80;0.67;;;16.30;48.50;;;;;;4914500;29;20916;-62
2023/02/03 15:43:09;;;;;;;1.40;0.80;;;16.20;48.50;;;;;;4920364;29;20467;-62
2023/02/03 15:45:44;;;;;;;0.90;0.70;;;16.30;48.60;;;;;;4920276;29;20498;-63
2023/02/03 15:48:38;;;;;;;1.00;0.70;;;16.20;48.50;;;;;;4919445;29;20422;-63
2023/02/03 15:51:22;;;;;;;1.10;0.73;;;16.20;48.50;;;;;;4920298;29;20931;-63
2023/02/03 15:53:57;;;;;;;1.07;0.80;;;16.20;48.50;;;;;;4920429;29;20407;-61
2023/02/03 15:56:29;;;;;;;1.30;0.90;;;16.20;48.50;;;;;;4920412;29;20443;-63
2023/02/03 15:58:57;;;;;;;1.20;0.83;;;16.30;48.60;;;;;;4919104;29;20416;-63
2023/02/03 16:01:25;;;;;;;1.20;0.70;;;16.30;48.60;;;;;;4920107;29;20550;-63
2023/02/03 16:03:54;;;;;;;2.17;0.80;;;16.30;48.60;;;;;;4920199;29;20447;-63
2023/02/03 16:06:34;;;;;;;1.20;0.80;;;16.30;48.60;;;;;;4918888;29;20439;-63
2023/02/03 16:09:00;;;;;;;1.10;0.90;;;16.30;48.60;;;;;;4920118;29;20419;-62
2023/02/03 16:11:36;;;;;;;0.90;0.70;;;16.30;48.60;;;;;;4920172;29;20744;-62
2023/02/03 16:14:29;;;;;;;1.50;0.93;;;16.30;48.60;;;;;;4920322;29;20435;-63
2023/02/03 16:16:56;;;;;;;1.00;0.87;;;16.30;48.60;;;;;;4919794;29;20432;-61
2023/02/03 16:19:22;;;;;;;1.10;0.80;;;16.30;48.60;;;;;;4920007;29;20452;-62
2023/02/03 16:21:50;;;;;;;1.10;0.73;;;16.30;48.60;;;;;;4919557;29;20456;-59
2023/02/03 16:24:31;;;;;;;2.30;0.80;;;16.30;48.60;;;;;;4919623;29;20487;-65
2023/02/03 16:27:19;;;;;;;0.80;0.67;;;16.30;48.70;;;;;;4919259;29;20810;-65
2023/02/03 16:51:55;;;;;;;1.20;0.80;;;16.40;48.80;;;;;;4919189;29;20415;-65
2023/02/03 16:54:21;;;;;;;1.00;0.70;;;16.40;48.80;;;;;;4918897;29;20823;-64
2023/02/03 16:56:46;;;;;;;0.97;0.80;;;16.40;48.80;;;;;;4918827;29;20203;-65
2023/02/03 16:59:12;;;;;;;1.20;0.90;;;16.40;48.70;;;;;;4919328;29;20180;-64
2023/02/03 17:01:38;;;;;;;1.00;0.80;;;16.50;48.80;;;;;;4917858;29;20218;-64
2023/02/03 17:04:04;;;;;;;1.07;0.70;;;16.50;48.70;;;;;;4918606;29;20172;-65
2023/02/03 17:06:29;;;;;;;0.90;0.77;;;16.50;48.70;;;;;;4918690;29;20435;-65
2023/02/03 17:08:55;;;;;;;1.43;0.80;;;16.50;48.70;;;;;;4918702;29;20180;-65
2023/02/03 17:11:22;;;;;;;1.57;0.77;;;16.50;48.60;;;;;;4918827;29;20187;-65
2023/02/03 17:13:48;;;;;;;1.13;0.80;;;16.60;48.70;;;;;;4918666;29;20179;-64
2023/02/03 17:16:21;;;;;;;2.70;0.90;;;16.60;48.70;;;;;;4919083;29;20807;-64
2023/02/03 17:18:47;;;;;;;1.33;0.70;;;16.60;48.90;;;;;;4918531;29;20908;-65
2023/02/03 17:21:16;;;;;;;1.10;0.90;;;16.60;48.60;;;;;;4918313;29;20977;-65
2023/02/03 17:23:42;;;;;;;1.90;0.80;;;16.60;48.60;;;;;;4918576;29;20416;-66
2023/02/03 17:26:07;;;;;;;1.40;0.80;;;16.60;48.60;;;;;;4918517;29;20470;-63
2023/02/03 17:28:34;;;;;;;1.77;0.80;;;16.60;48.60;;;;;;4919850;29;20431;-63
2023/02/03 17:31:04;;;;;;;1.30;0.90;;;16.70;48.70;;;;;;4918947;29;20183;-63
2023/02/03 17:33:31;;;;;;;1.30;0.90;;;16.60;48.60;;;;;;4919454;29;20911;-64
2023/02/03 17:36:08;;;;;;;2.00;0.80;;;16.60;48.60;;;;;;4917291;29;20967;-63
2023/02/03 17:38:43;;;;;;;0.90;0.70;;;16.60;48.60;;;;;;4918939;29;20784;-63
2023/02/03 17:41:13;;;;;;;1.10;0.90;;;16.60;48.60;;;;;;4918399;29;20463;-62
2023/02/03 17:43:39;;;;;;;1.40;0.83;;;16.60;48.60;;;;;;4918630;29;20416;-63
2023/02/03 17:46:06;;;;;;;1.13;0.90;;;16.60;48.60;;;;;;4917994;29;20440;-63
2023/02/03 17:48:32;;;;;;;2.13;0.93;;;16.60;48.70;;;;;;4917912;29;20430;-65
2023/02/03 17:51:12;;;;;;;1.33;0.90;;;16.60;48.70;;;;;;4917800;29;20833;-64
2023/02/03 17:53:38;;;;;;;0.93;0.73;;;16.60;48.70;;;;;;4918208;29;20400;-64
2023/02/03 17:56:09;;;;;;;1.07;0.77;;;16.60;48.70;;;;;;4917684;29;20436;-60
2023/02/03 17:58:34;;;;;;;1.40;0.80;;;16.60;48.70;;;;;;4917831;29;20779;-61
2023/02/03 18:01:05;;;;;;;1.00;0.80;;;16.60;48.70;;;;;;4917419;29;20423;-60
2023/02/03 18:03:30;;;;;;;1.73;0.70;;;16.60;48.70;;;;;;4917711;29;20176;-62
2023/02/03 18:05:56;;;;;;;1.73;0.80;;;16.60;48.70;;;;;;4917653;29;20487;-60
2023/02/03 18:08:22;;;;;;;0.90;0.80;;;16.60;48.80;;;;;;4918120;29;20183;-60
2023/02/03 18:10:47;;;;;;;2.03;0.97;;;16.60;48.80;;;;;;4917482;29;20179;-61
2023/02/03 18:13:13;;;;;;;3.63;0.90;;;16.50;48.70;;;;;;4915975;29;20230;-61
2023/02/03 18:15:38;;;;;;;1.50;0.80;;;16.60;48.80;;;;;;4917583;29;20250;-60
2023/02/03 18:18:04;;;;;;;1.10;0.90;;;16.50;48.80;;;;;;4918009;29;20524;-61
2023/02/03 18:20:30;;;;;;;1.20;1.00;;;16.50;48.80;;;;;;4917495;29;20180;-60
2023/02/03 18:22:57;;;;;;;1.20;0.83;;;16.50;48.90;;;;;;4916105;29;20512;-60
2023/02/03 18:25:22;;;;;;;2.27;0.90;;;16.50;49.40;;;;;;4917230;29;20503;-59
2023/02/03 18:27:50;;;;;;;1.10;0.83;;;16.50;48.90;;;;;;4917175;29;20219;-61
2023/02/03 18:30:17;;;;;;;1.63;0.90;;;16.50;48.90;;;;;;4917541;29;20551;-62
2023/02/03 18:32:43;;;;;;;1.70;0.80;;;16.50;48.90;;;;;;4917724;29;20415;-62
2023/02/03 18:35:12;;;;;;;1.53;0.90;;;16.50;48.90;;;;;;4917635;29;20793;-63
2023/02/03 18:37:38;;;;;;;0.97;0.67;;;16.50;49.10;;;;;;4917556;29;20246;-63
2023/02/03 18:40:04;;;;;;;1.40;1.10;;;16.50;49.20;;;;;;4917770;29;20798;-62
2023/02/03 18:42:30;;;;;;;6.17;1.20;;;16.40;49.20;;;;;;4918054;29;20211;-62
2023/02/03 18:44:55;;;;;;;1.47;1.00;;;16.40;49.20;;;;;;4917541;29;20440;-62
2023/02/03 18:47:21;;;;;;;2.50;1.10;;;16.40;49.20;;;;;;4916965;29;20335;-61
2023/02/03 18:49:46;;;;;;;1.20;0.90;;;16.40;49.20;;;;;;4917397;29;20195;-64
2023/02/03 18:52:12;;;;;;;1.60;1.00;;;16.40;49.20;;;;;;4917620;29;20235;-64
2023/02/03 18:54:38;;;;;;;1.17;0.90;;;16.40;49.20;;;;;;4917891;29;20199;-63
2023/02/03 18:57:04;;;;;;;1.13;0.70;;;16.40;49.20;;;;;;4917444;29;20203;-65
2023/02/03 18:59:30;;;;;;;1.00;0.80;;;16.40;49.20;;;;;;4917709;29;20176;-64
2023/02/03 19:01:56;;;;;;;2.13;1.60;;;16.40;49.30;;;;;;4917619;29;20471;-65
2023/02/03 19:04:21;;;;;;;1.40;0.80;;;16.40;49.20;;;;;;4917559;29;20202;-65
2023/02/03 19:06:47;;;;;;;2.90;1.33;;;16.40;49.20;;;;;;4917642;29;20378;-65
2023/02/03 19:09:15;;;;;;;1.40;0.90;;;16.40;49.30;;;;;;4917540;29;20179;-64
2023/02/03 19:11:41;;;;;;;1.63;1.00;;;16.40;49.30;;;;;;4917473;29;20443;-64
2023/02/03 19:14:07;;;;;;;1.30;0.80;;;16.40;49.30;;;;;;4918075;29;20420;-64
2023/02/03 19:16:33;;;;;;;1.77;0.83;;;16.30;49.20;;;;;;4916911;29;20431;-62
2023/02/03 19:18:58;;;;;;;3.00;1.60;;;16.40;49.30;;;;;;4917397;29;20230;-62
2023/02/03 19:21:24;;;;;;;1.77;0.93;;;16.30;49.20;;;;;;4916729;29;20259;-65
2023/02/03 19:23:50;;;;;;;2.27;1.40;;;16.30;49.20;;;;;;4917324;29;20644;-64
2023/02/03 19:26:15;;;;;;;1.70;1.07;;;16.30;49.20;;;;;;4918968;29;20208;-61
2023/02/03 19:28:41;;;;;;;1.67;1.00;;;16.30;49.20;;;;;;4920442;29;20164;-65
2023/02/03 19:31:10;;;;;;;1.60;0.93;;;16.30;49.20;;;;;;4920424;29;20187;-61
2023/02/03 19:33:36;;;;;;;2.03;1.10;;;16.30;49.20;;;;;;4920773;29;20538;-62
2023/02/03 19:36:04;;;;;;;1.43;1.00;;;16.30;49.30;;;;;;4920375;29;20439;-62
2023/02/03 19:38:29;;;;;;;2.20;1.23;;;16.30;49.20;;;;;;4920967;29;20511;-64
2023/02/03 19:40:55;;;;;;;1.43;1.00;;;16.30;49.20;;;;;;4920357;29;20959;-63
2023/02/03 19:43:21;;;;;;;2.13;1.10;;;16.30;49.20;;;;;;4920421;29;20255;-61
2023/02/03 19:45:46;;;;;;;1.50;0.97;;;16.40;49.20;;;;;;4920255;29;20533;-61
2023/02/03 19:48:12;;;;;;;2.40;1.10;;;16.40;49.20;;;;;;4920809;29;20176;-63
2023/02/03 19:50:39;;;;;;;2.40;1.20;;;16.40;49.10;;;;;;4920036;29;20184;-61
2023/02/03 19:53:07;;;;;;;1.57;1.17;;;16.40;49.10;;;;;;4919849;29;20184;-63
2023/02/03 19:55:32;;;;;;;1.23;1.10;;;16.40;49.10;;;;;;4920183;29;20455;-61
2023/02/03 19:57:58;;;;;;;1.83;0.90;;;16.40;49.00;;;;;;4920046;29;20466;-61
2023/02/03 20:00:26;;;;;;;2.03;1.00;;;16.40;49.10;;;;;;4920033;29;20179;-65
2023/02/03 20:02:51;;;;;;;1.10;0.90;;;16.40;49.10;;;;;;4919660;29;20459;-61
2023/02/03 20:05:17;;;;;;;1.40;1.00;;;16.40;49.00;;;;;;4919786;29;20408;-63
2023/02/03 20:07:42;;;;;;;1.57;1.10;;;16.40;49.00;;;;;;4918303;29;20227;-61
2023/02/03 20:10:08;;;;;;;1.40;1.07;;;16.40;49.00;;;;;;4919919;29;20230;-66
2023/02/03 20:12:34;;;;;;;1.33;1.03;;;16.40;49.00;;;;;;4919549;29;20649;-65
2023/02/03 20:15:00;;;;;;;2.03;1.10;;;16.40;49.00;;;;;;4919734;29;20451;-60
2023/02/03 20:17:27;;;;;;;1.30;1.00;;;16.40;48.90;;;;;;4919322;29;20206;-61
2023/02/03 20:19:52;;;;;;;1.27;0.90;;;16.50;49.00;;;;;;4919396;29;20416;-61
2023/02/03 20:22:18;;;;;;;1.80;1.10;;;16.50;49.00;;;;;;4919363;29;20598;-61
2023/02/03 20:24:44;;;;;;;1.30;1.00;;;16.50;49.00;;;;;;4919566;29;20262;-60
2023/02/03 20:27:09;;;;;;;1.60;1.17;;;16.50;49.00;;;;;;4918827;29;20683;-61
2023/02/03 20:29:35;;;;;;;1.83;1.00;;;16.50;49.00;;;;;;4919520;29;20645;-61
2023/02/03 20:32:03;;;;;;;1.83;1.10;;;16.50;49.00;;;;;;4919248;29;20184;-60
2023/02/03 20:34:29;;;;;;;3.00;1.33;;;16.50;49.00;;;;;;4919634;29;20218;-61
2023/02/03 20:36:57;;;;;;;2.13;1.33;;;16.50;49.00;;;;;;4918668;29;20535;-61
2023/02/03 20:39:22;;;;;;;1.10;0.80;;;16.50;49.00;;;;;;4919239;29;20301;-61
2023/02/03 20:41:48;;;;;;;2.60;1.20;;;16.50;49.00;;;;;;4919035;29;20471;-61
2023/02/03 20:44:14;;;;;;;2.80;1.00;;;16.50;48.90;;;;;;4919174;29;20717;-60
2023/02/03 20:46:40;;;;;;;1.43;0.90;;;16.50;48.90;;;;;;4919015;29;20200;-62
2023/02/03 20:49:11;;;;;;;1.87;1.10;;;16.50;48.90;;;;;;4919017;29;20180;-60
2023/02/03 20:51:36;;;;;;;2.27;1.30;;;16.50;49.00;;;;;;4918871;29;20423;-61
2023/02/03 20:54:11;;;;;;;1.43;1.10;;;16.50;49.10;;;;;;4918628;29;20411;-61
2023/02/03 20:56:36;;;;;;;2.37;1.10;;;16.50;49.00;;;;;;4918812;29;20202;-60
2023/02/03 20:59:02;;;;;;;1.37;0.97;;;16.50;49.10;;;;;;4918418;29;20499;-61
2023/02/03 21:01:28;;;;;;;2.20;1.10;;;16.50;49.10;;;;;;4918435;29;20206;-60
2023/02/03 21:06:38;;;;;;;1.87;1.17;;;16.50;49.10;;;;;;4919327;29;20955;-64
2023/02/03 21:09:16;;;;;;;2.50;0.90;;;16.50;49.10;;;;;;4918831;29;20412;-63
2023/02/03 21:11:42;;;;;;;2.13;1.27;;;16.60;49.10;;;;;;4918859;29;20544;-64
2023/02/03 21:14:23;;;;;;;2.40;1.40;;;16.60;49.10;;;;;;4918498;29;20420;-63
2023/02/03 21:16:49;;;;;;;2.47;1.13;;;16.60;49.10;;;;;;4918835;29;20432;-63
2023/02/03 21:19:32;;;;;;;1.87;1.20;;;16.60;49.00;;;;;;4918675;29;20424;-63
2023/02/03 21:22:02;;;;;;;1.60;1.00;;;16.60;49.20;;;;;;4918506;29;20986;-63
2023/02/03 21:24:33;;;;;;;4.30;1.20;;;16.60;49.00;;;;;;4918344;29;20943;-62
2023/02/03 21:26:59;;;;;;;2.30;1.40;;;16.60;49.50;;;;;;4918326;29;21022;-63
2023/02/03 21:29:30;;;;;;;2.47;1.33;;;16.60;48.90;;;;;;4918570;29;20950;-63
2023/02/03 21:31:56;;;;;;;1.40;1.30;;;16.60;48.90;;;;;;4918520;29;20423;-63
2023/02/03 21:34:33;;;;;;;2.20;1.43;;;16.60;48.80;;;;;;4918246;29;20920;-62
2023/02/03 21:37:19;;;;;;;1.57;1.00;;;16.70;48.90;;;;;;4918329;29;20536;-64
2023/02/03 21:39:46;;;;;;;1.50;1.10;;;16.70;48.80;;;;;;4918520;29;20923;-63
2023/02/03 21:42:40;;;;;;;1.80;1.30;;;16.60;48.70;;;;;;4918040;29;20964;-63
2023/02/03 21:45:20;;;;;;;2.17;1.30;;;16.70;48.80;;;;;;4918154;29;20499;-63
2023/02/03 21:47:48;;;;;;;2.20;1.20;;;16.70;48.80;;;;;;4917647;29;20424;-64
2023/02/03 21:50:39;;;;;;;2.13;1.20;;;16.70;48.80;;;;;;4918001;29;20404;-62
2023/02/03 21:53:08;;;;;;;1.90;1.30;;;16.70;48.70;;;;;;4918053;29;20411;-62
2023/02/03 21:55:39;;;;;;;1.70;1.20;;;16.70;48.70;;;;;;4918063;29;20486;-62
2023/02/03 21:58:25;;;;;;;2.93;1.53;;;16.70;48.70;;;;;;4917829;29;20412;-61
2023/02/03 22:00:53;;;;;;;2.47;1.20;;;16.70;48.70;;;;;;4916635;29;20418;-62
2023/02/03 22:03:29;;;;;;;4.67;1.37;;;16.70;48.70;;;;;;4917876;29;20431;-63
2023/02/03 22:06:15;;;;;;;2.27;1.00;;;16.70;48.60;;;;;;4917883;29;20463;-63
2023/02/03 22:08:46;;;;;;;1.43;1.00;;;16.70;48.60;;;;;;4917904;29;20431;-63